sensor_id;sensor_type;location;lat;lon;timestamp;pressure;altitude;pressure_sealevel;temperature;humidity
41306;BME280;27051;50.376;19.152;2023-11-19T00:01:35;98640.48;;;4.90;60.07
41306;BME280;27051;50.376;19.152;2023-11-19T00:04:42;98639.91;;;4.92;60.04
41306;BME280;27051;50.376;19.152;2023-11-19T00:07:35;98640.44;;;4.92;59.86
41306;BME280;27051;50.376;19.152;2023-11-19T00:10:01;98643.63;;;4.86;59.86
41306;BME280;27051;50.376;19.152;2023-11-19T00:12:34;98637.38;;;4.87;59.97
41306;BME280;27051;50.376;19.152;2023-11-19T00:15:01;98639.89;;;4.82;59.82
41306;BME280;27051;50.376;19.152;2023-11-19T00:17:29;98641.59;;;4.71;59.98
41306;BME280;27051;50.376;19.152;2023-11-19T00:22:36;98631.80;;;4.67;60.15
41306;BME280;27051;50.376;19.152;2023-11-19T00:28:09;98626.14;;;4.43;60.13
41306;BME280;27051;50.376;19.152;2023-11-19T00:30:37;98617.87;;;4.32;60.09
41306;BME280;27051;50.376;19.152;2023-11-19T00:33:06;98609.68;;;4.21;60.16
41306;BME280;27051;50.376;19.152;2023-11-19T00:35:33;98611.32;;;4.27;60.63
41306;BME280;27051;50.376;19.152;2023-11-19T00:38:01;98617.83;;;4.25;60.52
41306;BME280;27051;50.376;19.152;2023-11-19T00:40:28;98621.91;;;4.22;60.61
41306;BME280;27051;50.376;19.152;2023-11-19T00:43:00;98619.45;;;4.24;60.52
41306;BME280;27051;50.376;19.152;2023-11-19T00:45:40;98612.63;;;4.19;60.56
41306;BME280;27051;50.376;19.152;2023-11-19T00:48:07;98612.23;;;4.17;60.58
41306;BME280;27051;50.376;19.152;2023-11-19T00:50:46;98614.34;;;4.14;60.72
41306;BME280;27051;50.376;19.152;2023-11-19T00:53:26;98617.10;;;4.15;60.68
41306;BME280;27051;50.376;19.152;2023-11-19T00:55:56;98611.98;;;4.11;60.77
41306;BME280;27051;50.376;19.152;2023-11-19T00:58:28;98611.33;;;4.22;60.87
41306;BME280;27051;50.376;19.152;2023-11-19T01:00:56;98602.13;;;4.26;60.74
41306;BME280;27051;50.376;19.152;2023-11-19T01:03:44;98604.73;;;4.17;60.40
41306;BME280;27051;50.376;19.152;2023-11-19T01:06:10;98608.64;;;4.20;60.63
41306;BME280;27051;50.376;19.152;2023-11-19T01:08:37;98610.58;;;4.31;60.64
41306;BME280;27051;50.376;19.152;2023-11-19T01:11:46;98611.05;;;4.36;60.64
41306;BME280;27051;50.376;19.152;2023-11-19T01:14:20;98604.77;;;4.36;60.54
41306;BME280;27051;50.376;19.152;2023-11-19T01:16:50;98597.73;;;4.41;60.43
41306;BME280;27051;50.376;19.152;2023-11-19T01:19:49;98598.64;;;4.45;60.56
41306;BME280;27051;50.376;19.152;2023-11-19T01:22:17;98593.45;;;4.47;60.54
41306;BME280;27051;50.376;19.152;2023-11-19T01:25:05;98587.45;;;4.49;60.45
41306;BME280;27051;50.376;19.152;2023-11-19T01:30:18;98578.56;;;4.54;60.46
41306;BME280;27051;50.376;19.152;2023-11-19T01:35:53;98571.79;;;4.54;60.50
41306;BME280;27051;50.376;19.152;2023-11-19T01:38:40;98570.23;;;4.52;60.42
41306;BME280;27051;50.376;19.152;2023-11-19T01:41:37;98565.41;;;4.54;60.35
41306;BME280;27051;50.376;19.152;2023-11-19T01:47:13;98563.25;;;4.52;60.37
41306;BME280;27051;50.376;19.152;2023-11-19T01:49:50;98559.74;;;4.52;60.47
41306;BME280;27051;50.376;19.152;2023-11-19T01:52:21;98549.57;;;4.52;60.45
41306;BME280;27051;50.376;19.152;2023-11-19T01:54:48;98547.66;;;4.51;60.50
41306;BME280;27051;50.376;19.152;2023-11-19T01:57:45;98542.23;;;4.59;60.46
41306;BME280;27051;50.376;19.152;2023-11-19T02:00:42;98535.23;;;4.60;60.23
41306;BME280;27051;50.376;19.152;2023-11-19T02:03:28;98530.17;;;4.50;60.16
41306;BME280;27051;50.376;19.152;2023-11-19T02:05:56;98524.66;;;4.52;60.41
41306;BME280;27051;50.376;19.152;2023-11-19T02:08:23;98518.42;;;4.52;60.59
41306;BME280;27051;50.376;19.152;2023-11-19T02:10:50;98507.21;;;4.59;60.62
41306;BME280;27051;50.376;19.152;2023-11-19T02:13:18;98497.92;;;4.60;60.41
41306;BME280;27051;50.376;19.152;2023-11-19T02:15:49;98484.67;;;4.56;60.31
41306;BME280;27051;50.376;19.152;2023-11-19T02:18:45;98472.20;;;4.60;60.41
41306;BME280;27051;50.376;19.152;2023-11-19T02:21:21;98468.40;;;4.59;60.19
41306;BME280;27051;50.376;19.152;2023-11-19T02:23:48;98463.80;;;4.52;60.30
41306;BME280;27051;50.376;19.152;2023-11-19T02:26:26;98457.14;;;4.46;60.30
41306;BME280;27051;50.376;19.152;2023-11-19T02:28:58;98448.30;;;4.40;60.61
41306;BME280;27051;50.376;19.152;2023-11-19T02:31:33;98449.89;;;4.35;60.47
41306;BME280;27051;50.376;19.152;2023-11-19T02:34:00;98451.83;;;4.27;60.46
41306;BME280;27051;50.376;19.152;2023-11-19T02:36:30;98452.77;;;4.25;60.59
41306;BME280;27051;50.376;19.152;2023-11-19T02:38:59;98448.46;;;4.24;60.58
41306;BME280;27051;50.376;19.152;2023-11-19T02:41:26;98435.08;;;4.23;60.73
41306;BME280;27051;50.376;19.152;2023-11-19T02:44:15;98421.64;;;4.18;60.47
41306;BME280;27051;50.376;19.152;2023-11-19T02:46:41;98417.53;;;4.07;60.67
41306;BME280;27051;50.376;19.152;2023-11-19T02:49:08;98416.00;;;4.02;60.65
41306;BME280;27051;50.376;19.152;2023-11-19T02:51:55;98410.89;;;3.96;60.73
41306;BME280;27051;50.376;19.152;2023-11-19T02:54:27;98395.88;;;3.96;60.89
41306;BME280;27051;50.376;19.152;2023-11-19T02:56:54;98382.17;;;3.91;60.80
41306;BME280;27051;50.376;19.152;2023-11-19T02:59:21;98383.96;;;3.78;60.81
41306;BME280;27051;50.376;19.152;2023-11-19T03:01:48;98379.35;;;3.73;60.94
41306;BME280;27051;50.376;19.152;2023-11-19T03:04:15;98374.07;;;3.70;60.90
41306;BME280;27051;50.376;19.152;2023-11-19T03:06:42;98374.98;;;3.66;60.92
41306;BME280;27051;50.376;19.152;2023-11-19T03:09:10;98377.22;;;3.60;61.05
41306;BME280;27051;50.376;19.152;2023-11-19T03:11:37;98382.98;;;3.58;60.87
41306;BME280;27051;50.376;19.152;2023-11-19T03:14:04;98385.41;;;3.56;60.83
41306;BME280;27051;50.376;19.152;2023-11-19T03:16:54;98388.05;;;3.50;60.99
41306;BME280;27051;50.376;19.152;2023-11-19T03:19:21;98383.88;;;3.47;61.11
41306;BME280;27051;50.376;19.152;2023-11-19T03:21:51;98381.79;;;3.48;60.97
41306;BME280;27051;50.376;19.152;2023-11-19T03:24:18;98386.11;;;3.52;61.17
41306;BME280;27051;50.376;19.152;2023-11-19T03:26:49;98386.16;;;3.51;61.11
41306;BME280;27051;50.376;19.152;2023-11-19T03:29:16;98384.39;;;3.48;61.13
41306;BME280;27051;50.376;19.152;2023-11-19T03:31:43;98380.17;;;3.54;61.22
41306;BME280;27051;50.376;19.152;2023-11-19T03:34:10;98374.34;;;3.53;61.18
41306;BME280;27051;50.376;19.152;2023-11-19T03:36:46;98371.02;;;3.56;61.32
41306;BME280;27051;50.376;19.152;2023-11-19T03:39:16;98369.33;;;3.63;61.31
41306;BME280;27051;50.376;19.152;2023-11-19T03:41:45;98360.42;;;3.68;60.99
41306;BME280;27051;50.376;19.152;2023-11-19T03:44:12;98349.89;;;3.70;60.98
41306;BME280;27051;50.376;19.152;2023-11-19T03:46:39;98339.51;;;3.74;60.99
41306;BME280;27051;50.376;19.152;2023-11-19T03:49:07;98330.75;;;3.77;61.09
41306;BME280;27051;50.376;19.152;2023-11-19T03:54:11;98322.42;;;3.79;60.81
41306;BME280;27051;50.376;19.152;2023-11-19T03:56:59;98324.86;;;3.72;60.87
41306;BME280;27051;50.376;19.152;2023-11-19T03:59:26;98317.66;;;3.74;61.06
41306;BME280;27051;50.376;19.152;2023-11-19T04:01:53;98305.15;;;3.75;61.12
41306;BME280;27051;50.376;19.152;2023-11-19T04:04:20;98298.34;;;3.82;61.29
41306;BME280;27051;50.376;19.152;2023-11-19T04:06:48;98296.23;;;3.81;61.00
41306;BME280;27051;50.376;19.152;2023-11-19T04:12:24;98282.16;;;3.76;60.93
41306;BME280;27051;50.376;19.152;2023-11-19T04:15:23;98280.13;;;3.70;60.77
41306;BME280;27051;50.376;19.152;2023-11-19T04:17:49;98277.17;;;3.68;60.85
41306;BME280;27051;50.376;19.152;2023-11-19T04:20:57;98286.15;;;3.69;60.76
41306;BME280;27051;50.376;19.152;2023-11-19T04:23:29;98290.02;;;3.66;60.74
41306;BME280;27051;50.376;19.152;2023-11-19T04:26:18;98280.32;;;3.60;61.01
41306;BME280;27051;50.376;19.152;2023-11-19T04:29:25;98269.06;;;3.66;61.06
41306;BME280;27051;50.376;19.152;2023-11-19T04:32:12;98265.09;;;3.62;60.95
41306;BME280;27051;50.376;19.152;2023-11-19T04:34:42;98265.95;;;3.50;60.90
41306;BME280;27051;50.376;19.152;2023-11-19T04:37:11;98266.75;;;3.28;60.94
41306;BME280;27051;50.376;19.152;2023-11-19T04:39:48;98256.27;;;3.16;61.14
41306;BME280;27051;50.376;19.152;2023-11-19T04:42:15;98248.15;;;3.24;61.42
41306;BME280;27051;50.376;19.152;2023-11-19T04:44:43;98249.90;;;3.32;61.33
41306;BME280;27051;50.376;19.152;2023-11-19T04:47:10;98253.27;;;3.31;61.38
41306;BME280;27051;50.376;19.152;2023-11-19T04:49:53;98250.83;;;3.27;61.15
41306;BME280;27051;50.376;19.152;2023-11-19T04:52:20;98248.11;;;3.23;61.32
41306;BME280;27051;50.376;19.152;2023-11-19T04:54:47;98249.70;;;3.27;61.21
41306;BME280;27051;50.376;19.152;2023-11-19T04:57:14;98245.83;;;3.16;61.32
41306;BME280;27051;50.376;19.152;2023-11-19T04:59:44;98241.58;;;3.16;61.36
41306;BME280;27051;50.376;19.152;2023-11-19T05:02:14;98237.57;;;3.09;61.31
41306;BME280;27051;50.376;19.152;2023-11-19T05:04:44;98239.17;;;3.16;61.57
41306;BME280;27051;50.376;19.152;2023-11-19T05:07:11;98236.83;;;3.24;61.67
41306;BME280;27051;50.376;19.152;2023-11-19T05:09:38;98233.58;;;3.25;61.44
41306;BME280;27051;50.376;19.152;2023-11-19T05:12:17;98233.30;;;3.34;61.45
41306;BME280;27051;50.376;19.152;2023-11-19T05:14:44;98237.16;;;3.35;61.35
41306;BME280;27051;50.376;19.152;2023-11-19T05:17:11;98236.43;;;3.31;61.18
41306;BME280;27051;50.376;19.152;2023-11-19T05:19:39;98232.40;;;3.34;61.44
41306;BME280;27051;50.376;19.152;2023-11-19T05:22:06;98217.38;;;3.46;61.48
41306;BME280;27051;50.376;19.152;2023-11-19T05:24:33;98206.63;;;3.52;61.28
41306;BME280;27051;50.376;19.152;2023-11-19T05:27:00;98203.12;;;3.52;61.20
41306;BME280;27051;50.376;19.152;2023-11-19T05:29:34;98193.70;;;3.55;61.39
41306;BME280;27051;50.376;19.152;2023-11-19T05:32:04;98183.38;;;3.57;61.32
41306;BME280;27051;50.376;19.152;2023-11-19T05:34:31;98176.29;;;3.58;61.37
41306;BME280;27051;50.376;19.152;2023-11-19T05:36:58;98173.52;;;3.55;61.05
41306;BME280;27051;50.376;19.152;2023-11-19T05:39:25;98162.23;;;3.56;61.26
41306;BME280;27051;50.376;19.152;2023-11-19T05:41:52;98156.21;;;3.56;61.32
41306;BME280;27051;50.376;19.152;2023-11-19T05:44:19;98155.65;;;3.55;61.26
41306;BME280;27051;50.376;19.152;2023-11-19T05:46:51;98156.45;;;3.48;61.10
41306;BME280;27051;50.376;19.152;2023-11-19T05:49:18;98160.30;;;3.43;61.17
41306;BME280;27051;50.376;19.152;2023-11-19T05:51:45;98170.91;;;3.40;61.17
41306;BME280;27051;50.376;19.152;2023-11-19T05:54:22;98175.44;;;3.40;61.29
41306;BME280;27051;50.376;19.152;2023-11-19T05:56:52;98171.95;;;3.43;61.31
41306;BME280;27051;50.376;19.152;2023-11-19T05:59:19;98162.77;;;3.42;61.41
41306;BME280;27051;50.376;19.152;2023-11-19T06:01:46;98161.58;;;3.40;61.25
41306;BME280;27051;50.376;19.152;2023-11-19T06:04:13;98158.79;;;3.35;61.38
41306;BME280;27051;50.376;19.152;2023-11-19T06:06:40;98158.26;;;3.38;61.46
41306;BME280;27051;50.376;19.152;2023-11-19T06:09:07;98167.40;;;3.38;61.42
41306;BME280;27051;50.376;19.152;2023-11-19T06:11:36;98173.88;;;3.39;61.66
41306;BME280;27051;50.376;19.152;2023-11-19T06:14:04;98174.34;;;3.36;61.57
41306;BME280;27051;50.376;19.152;2023-11-19T06:16:31;98175.05;;;3.35;61.60
41306;BME280;27051;50.376;19.152;2023-11-19T06:18:58;98169.66;;;3.29;61.68
41306;BME280;27051;50.376;19.152;2023-11-19T06:21:25;98172.75;;;3.29;61.71
41306;BME280;27051;50.376;19.152;2023-11-19T06:23:52;98172.58;;;3.23;61.69
41306;BME280;27051;50.376;19.152;2023-11-19T06:26:19;98172.64;;;3.15;61.69
41306;BME280;27051;50.376;19.152;2023-11-19T06:28:46;98170.67;;;3.15;61.95
41306;BME280;27051;50.376;19.152;2023-11-19T06:31:13;98161.89;;;3.20;62.08
41306;BME280;27051;50.376;19.152;2023-11-19T06:33:40;98154.50;;;3.27;62.02
41306;BME280;27051;50.376;19.152;2023-11-19T06:36:08;98157.86;;;3.30;62.00
41306;BME280;27051;50.376;19.152;2023-11-19T06:38:35;98154.73;;;3.30;62.04
41306;BME280;27051;50.376;19.152;2023-11-19T06:41:07;98151.48;;;3.30;62.11
41306;BME280;27051;50.376;19.152;2023-11-19T06:43:34;98130.55;;;3.36;62.33
41306;BME280;27051;50.376;19.152;2023-11-19T06:46:04;98126.97;;;3.44;62.30
41306;BME280;27051;50.376;19.152;2023-11-19T06:48:32;98127.14;;;3.44;62.26
41306;BME280;27051;50.376;19.152;2023-11-19T06:51:04;98119.48;;;3.46;62.31
41306;BME280;27051;50.376;19.152;2023-11-19T06:53:34;98116.06;;;3.48;62.35
41306;BME280;27051;50.376;19.152;2023-11-19T06:56:02;98105.65;;;3.52;62.34
41306;BME280;27051;50.376;19.152;2023-11-19T06:58:29;98099.17;;;3.47;62.33
41306;BME280;27051;50.376;19.152;2023-11-19T07:00:56;98095.15;;;3.46;62.42
41306;BME280;27051;50.376;19.152;2023-11-19T07:03:23;98096.54;;;3.46;62.35
41306;BME280;27051;50.376;19.152;2023-11-19T07:05:50;98095.77;;;3.48;62.45
41306;BME280;27051;50.376;19.152;2023-11-19T07:08:17;98093.08;;;3.53;62.57
41306;BME280;27051;50.376;19.152;2023-11-19T07:10:44;98093.88;;;3.53;62.50
41306;BME280;27051;50.376;19.152;2023-11-19T07:13:20;98096.20;;;3.54;62.62
41306;BME280;27051;50.376;19.152;2023-11-19T07:15:50;98094.48;;;3.58;62.62
41306;BME280;27051;50.376;19.152;2023-11-19T07:18:17;98090.48;;;3.64;62.38
41306;BME280;27051;50.376;19.152;2023-11-19T07:20:44;98085.55;;;3.64;62.60
41306;BME280;27051;50.376;19.152;2023-11-19T07:23:11;98086.29;;;3.71;62.70
41306;BME280;27051;50.376;19.152;2023-11-19T07:25:42;98084.73;;;3.77;62.67
41306;BME280;27051;50.376;19.152;2023-11-19T07:28:12;98081.45;;;3.84;62.58
41306;BME280;27051;50.376;19.152;2023-11-19T07:30:40;98073.55;;;3.90;62.53
41306;BME280;27051;50.376;19.152;2023-11-19T07:33:07;98066.30;;;3.90;62.51
41306;BME280;27051;50.376;19.152;2023-11-19T07:35:36;98073.52;;;3.91;62.35
41306;BME280;27051;50.376;19.152;2023-11-19T07:38:03;98082.50;;;3.94;62.62
41306;BME280;27051;50.376;19.152;2023-11-19T07:40:30;98076.20;;;3.96;62.24
41306;BME280;27051;50.376;19.152;2023-11-19T07:42:58;98070.80;;;3.94;62.50
41306;BME280;27051;50.376;19.152;2023-11-19T07:45:25;98064.48;;;4.01;62.48
41306;BME280;27051;50.376;19.152;2023-11-19T07:47:55;98056.95;;;4.06;62.44
41306;BME280;27051;50.376;19.152;2023-11-19T07:50:22;98057.16;;;4.03;62.32
41306;BME280;27051;50.376;19.152;2023-11-19T07:52:49;98050.34;;;3.94;62.18
41306;BME280;27051;50.376;19.152;2023-11-19T07:55:19;98044.70;;;3.90;62.45
41306;BME280;27051;50.376;19.152;2023-11-19T07:57:46;98037.45;;;3.91;62.80
41306;BME280;27051;50.376;19.152;2023-11-19T08:00:14;98038.20;;;3.97;62.62
41306;BME280;27051;50.376;19.152;2023-11-19T08:02:41;98028.68;;;4.09;62.68
41306;BME280;27051;50.376;19.152;2023-11-19T08:05:09;98025.70;;;4.11;62.49
41306;BME280;27051;50.376;19.152;2023-11-19T08:07:43;98032.66;;;4.18;62.58
41306;BME280;27051;50.376;19.152;2023-11-19T08:10:10;98032.02;;;4.21;62.38
41306;BME280;27051;50.376;19.152;2023-11-19T08:12:40;98013.73;;;4.28;62.57
41306;BME280;27051;50.376;19.152;2023-11-19T08:15:08;97999.47;;;4.37;62.69
41306;BME280;27051;50.376;19.152;2023-11-19T08:17:35;97995.27;;;4.49;62.70
41306;BME280;27051;50.376;19.152;2023-11-19T08:20:22;97999.23;;;4.55;62.31
41306;BME280;27051;50.376;19.152;2023-11-19T08:22:50;97996.14;;;4.55;62.33
41306;BME280;27051;50.376;19.152;2023-11-19T08:25:27;97993.02;;;4.55;62.40
41306;BME280;27051;50.376;19.152;2023-11-19T08:27:54;97988.89;;;4.62;62.57
41306;BME280;27051;50.376;19.152;2023-11-19T08:30:21;98000.53;;;4.67;62.22
41306;BME280;27051;50.376;19.152;2023-11-19T08:32:52;98004.78;;;4.68;62.38
41306;BME280;27051;50.376;19.152;2023-11-19T08:35:21;97995.42;;;4.77;62.31
41306;BME280;27051;50.376;19.152;2023-11-19T08:37:51;97993.02;;;4.79;62.19
41306;BME280;27051;50.376;19.152;2023-11-19T08:48:39;97979.48;;;4.87;61.96
41306;BME280;27051;50.376;19.152;2023-11-19T08:51:07;97974.44;;;4.83;61.94
41306;BME280;27051;50.376;19.152;2023-11-19T08:53:34;97969.65;;;4.82;61.92
41306;BME280;27051;50.376;19.152;2023-11-19T08:56:01;97972.48;;;4.74;61.76
41306;BME280;27051;50.376;19.152;2023-11-19T08:58:49;97973.34;;;4.69;61.99
41306;BME280;27051;50.376;19.152;2023-11-19T09:01:16;97979.97;;;4.70;61.90
41306;BME280;27051;50.376;19.152;2023-11-19T09:04:01;97963.23;;;4.73;61.96
41306;BME280;27051;50.376;19.152;2023-11-19T09:06:59;97946.27;;;4.81;62.15
41306;BME280;27051;50.376;19.152;2023-11-19T09:09:25;97927.96;;;4.85;61.93
41306;BME280;27051;50.376;19.152;2023-11-19T09:12:06;97921.43;;;4.88;62.27
41306;BME280;27051;50.376;19.152;2023-11-19T09:17:52;97929.85;;;5.05;62.21
41306;BME280;27051;50.376;19.152;2023-11-19T09:20:32;97920.48;;;5.20;61.94
41306;BME280;27051;50.376;19.152;2023-11-19T09:26:08;97913.45;;;5.25;61.21
41306;BME280;27051;50.376;19.152;2023-11-19T09:28:36;97912.29;;;5.18;61.12
41306;BME280;27051;50.376;19.152;2023-11-19T09:31:34;97911.48;;;5.12;61.03
41306;BME280;27051;50.376;19.152;2023-11-19T09:34:43;97908.39;;;5.07;61.29
41306;BME280;27051;50.376;19.152;2023-11-19T09:40:49;97896.30;;;5.07;61.17
41306;BME280;27051;50.376;19.152;2023-11-19T09:43:17;97891.19;;;5.08;61.18
41306;BME280;27051;50.376;19.152;2023-11-19T09:48:43;97878.98;;;5.32;61.46
41306;BME280;27051;50.376;19.152;2023-11-19T09:51:37;97872.46;;;5.45;61.38
41306;BME280;27051;50.376;19.152;2023-11-19T10:00:29;97849.14;;;5.76;60.95
41306;BME280;27051;50.376;19.152;2023-11-19T10:03:16;97843.28;;;5.84;60.09
41306;BME280;27051;50.376;19.152;2023-11-19T10:08:33;97833.84;;;5.92;59.53
41306;BME280;27051;50.376;19.152;2023-11-19T10:11:02;97819.63;;;5.89;59.12
41306;BME280;27051;50.376;19.152;2023-11-19T10:13:57;97815.50;;;5.89;59.17
41306;BME280;27051;50.376;19.152;2023-11-19T10:16:34;97803.75;;;5.95;59.65
41306;BME280;27051;50.376;19.152;2023-11-19T10:19:11;97799.38;;;6.15;59.66
41306;BME280;27051;50.376;19.152;2023-11-19T10:24:34;97803.67;;;6.20;58.63
41306;BME280;27051;50.376;19.152;2023-11-19T10:27:01;97801.56;;;6.11;58.31
41306;BME280;27051;50.376;19.152;2023-11-19T10:29:44;97787.18;;;5.98;58.51
41306;BME280;27051;50.376;19.152;2023-11-19T10:32:17;97780.30;;;5.91;59.04
41306;BME280;27051;50.376;19.152;2023-11-19T10:34:44;97771.61;;;5.83;58.99
41306;BME280;27051;50.376;19.152;2023-11-19T10:37:31;97766.91;;;5.77;58.98
41306;BME280;27051;50.376;19.152;2023-11-19T10:40:28;97769.14;;;5.63;59.54
41306;BME280;27051;50.376;19.152;2023-11-19T10:46:12;97757.69;;;5.37;59.64
41306;BME280;27051;50.376;19.152;2023-11-19T10:49:02;97759.48;;;5.27;59.95
41306;BME280;27051;50.376;19.152;2023-11-19T10:51:50;97747.31;;;5.26;60.36
41306;BME280;27051;50.376;19.152;2023-11-19T10:54:50;97736.09;;;5.27;60.33
41306;BME280;27051;50.376;19.152;2023-11-19T10:57:53;97722.52;;;5.25;60.30
41306;BME280;27051;50.376;19.152;2023-11-19T11:03:40;97705.86;;;5.25;60.57
41306;BME280;27051;50.376;19.152;2023-11-19T11:06:49;97715.46;;;5.23;60.38
41306;BME280;27051;50.376;19.152;2023-11-19T11:14:37;97706.65;;;5.17;61.04
41306;BME280;27051;50.376;19.152;2023-11-19T11:17:18;97696.42;;;5.24;61.11
41306;BME280;27051;50.376;19.152;2023-11-19T11:19:47;97692.61;;;5.23;61.00
41306;BME280;27051;50.376;19.152;2023-11-19T11:22:46;97689.32;;;5.23;61.25
41306;BME280;27051;50.376;19.152;2023-11-19T11:26:44;97682.45;;;5.21;61.13
41306;BME280;27051;50.376;19.152;2023-11-19T11:35:03;97660.38;;;5.07;61.82
41306;BME280;27051;50.376;19.152;2023-11-19T11:37:48;97655.39;;;5.01;61.64
41306;BME280;27051;50.376;19.152;2023-11-19T11:40:17;97664.27;;;4.98;61.95
41306;BME280;27051;50.376;19.152;2023-11-19T11:42:45;97666.33;;;4.95;62.08
41306;BME280;27051;50.376;19.152;2023-11-19T11:45:18;97661.63;;;4.92;62.10
41306;BME280;27051;50.376;19.152;2023-11-19T11:48:15;97660.15;;;4.95;62.23
41306;BME280;27051;50.376;19.152;2023-11-19T11:50:54;97649.66;;;4.93;62.13
41306;BME280;27051;50.376;19.152;2023-11-19T11:53:23;97646.64;;;4.86;62.24
41306;BME280;27051;50.376;19.152;2023-11-19T11:56:00;97653.20;;;4.84;62.36
41306;BME280;27051;50.376;19.152;2023-11-19T11:58:40;97652.01;;;4.85;62.41
41306;BME280;27051;50.376;19.152;2023-11-19T12:01:14;97643.17;;;4.81;62.52
41306;BME280;27051;50.376;19.152;2023-11-19T12:03:44;97637.23;;;4.79;62.66
41306;BME280;27051;50.376;19.152;2023-11-19T12:06:20;97632.23;;;4.78;62.54
41306;BME280;27051;50.376;19.152;2023-11-19T12:08:51;97635.83;;;4.68;62.59
41306;BME280;27051;50.376;19.152;2023-11-19T12:11:23;97627.73;;;4.63;62.67
41306;BME280;27051;50.376;19.152;2023-11-19T12:13:55;97626.23;;;4.61;62.85
41306;BME280;27051;50.376;19.152;2023-11-19T12:16:31;97618.39;;;4.60;62.87
41306;BME280;27051;50.376;19.152;2023-11-19T12:19:24;97613.55;;;4.53;63.05
41306;BME280;27051;50.376;19.152;2023-11-19T12:22:21;97607.15;;;4.49;63.22
41306;BME280;27051;50.376;19.152;2023-11-19T12:24:47;97605.98;;;4.51;63.09
41306;BME280;27051;50.376;19.152;2023-11-19T12:28:03;97603.83;;;4.52;63.40
41306;BME280;27051;50.376;19.152;2023-11-19T12:30:16;97601.73;;;4.50;63.47
41306;BME280;27051;50.376;19.152;2023-11-19T12:33:08;97599.31;;;4.49;63.46
41306;BME280;27051;50.376;19.152;2023-11-19T12:35:39;97592.23;;;4.46;63.64
41306;BME280;27051;50.376;19.152;2023-11-19T12:38:42;97585.60;;;4.49;63.91
41306;BME280;27051;50.376;19.152;2023-11-19T12:41:50;97581.51;;;4.51;63.89
41306;BME280;27051;50.376;19.152;2023-11-19T12:44:28;97580.40;;;4.45;63.77
41306;BME280;27051;50.376;19.152;2023-11-19T12:47:06;97573.20;;;4.40;63.97
41306;BME280;27051;50.376;19.152;2023-11-19T12:49:56;97573.83;;;4.44;64.13
41306;BME280;27051;50.376;19.152;2023-11-19T12:56:07;97559.77;;;4.42;64.28
41306;BME280;27051;50.376;19.152;2023-11-19T12:58:36;97550.90;;;4.47;64.40
41306;BME280;27051;50.376;19.152;2023-11-19T13:01:09;97547.79;;;4.50;64.41
41306;BME280;27051;50.376;19.152;2023-11-19T13:03:37;97550.08;;;4.52;64.32
41306;BME280;27051;50.376;19.152;2023-11-19T13:06:30;97552.39;;;4.49;64.41
41306;BME280;27051;50.376;19.152;2023-11-19T13:12:53;97545.19;;;4.62;64.41
41306;BME280;27051;50.376;19.152;2023-11-19T13:15:27;97534.29;;;4.63;64.43
41306;BME280;27051;50.376;19.152;2023-11-19T13:17:57;97534.70;;;4.58;64.37
41306;BME280;27051;50.376;19.152;2023-11-19T13:20:46;97534.10;;;4.48;64.79
41306;BME280;27051;50.376;19.152;2023-11-19T13:23:21;97532.66;;;4.43;64.80
41306;BME280;27051;50.376;19.152;2023-11-19T13:26:08;97528.80;;;4.42;65.04
41306;BME280;27051;50.376;19.152;2023-11-19T13:28:38;97527.45;;;4.36;64.94
41306;BME280;27051;50.376;19.152;2023-11-19T13:31:06;97519.74;;;4.35;65.14
41306;BME280;27051;50.376;19.152;2023-11-19T13:33:33;97527.15;;;4.39;65.46
41306;BME280;27051;50.376;19.152;2023-11-19T13:36:12;97526.08;;;4.49;65.32
41306;BME280;27051;50.376;19.152;2023-11-19T13:38:39;97522.27;;;4.56;65.33
41306;BME280;27051;50.376;19.152;2023-11-19T13:41:11;97517.77;;;4.59;65.35
41306;BME280;27051;50.376;19.152;2023-11-19T13:43:38;97514.70;;;4.51;65.08
41306;BME280;27051;50.376;19.152;2023-11-19T13:46:08;97506.96;;;4.43;65.15
41306;BME280;27051;50.376;19.152;2023-11-19T13:48:38;97502.04;;;4.44;65.46
41306;BME280;27051;50.376;19.152;2023-11-19T14:09:50;97486.55;;;3.90;67.06
41306;BME280;27051;50.376;19.152;2023-11-19T14:12:17;97487.73;;;3.84;66.98
41306;BME280;27051;50.376;19.152;2023-11-19T14:14:43;97486.90;;;3.81;66.93
41306;BME280;27051;50.376;19.152;2023-11-19T14:17:10;97480.58;;;3.73;67.13
41306;BME280;27051;50.376;19.152;2023-11-19T14:19:37;97482.63;;;3.72;67.06
41306;BME280;27051;50.376;19.152;2023-11-19T14:22:04;97483.74;;;3.80;67.23
41306;BME280;27051;50.376;19.152;2023-11-19T14:24:31;97470.94;;;3.84;67.30
41306;BME280;27051;50.376;19.152;2023-11-19T14:26:58;97468.35;;;3.88;67.14
41306;BME280;27051;50.376;19.152;2023-11-19T16:22:30;97415.72;;;4.14;74.50
41306;BME280;27051;50.376;19.152;2023-11-19T16:24:57;97416.50;;;4.17;74.58
41306;BME280;27051;50.376;19.152;2023-11-19T16:27:24;97421.22;;;4.26;73.94
41306;BME280;27051;50.376;19.152;2023-11-19T16:29:50;97424.51;;;4.37;74.62
41306;BME280;27051;50.376;19.152;2023-11-19T16:32:17;97429.34;;;4.57;74.18
41306;BME280;27051;50.376;19.152;2023-11-19T16:34:44;97424.52;;;4.70;73.82
41306;BME280;27051;50.376;19.152;2023-11-19T16:37:11;97429.39;;;4.79;73.93
41306;BME280;27051;50.376;19.152;2023-11-19T16:39:41;97428.20;;;4.81;73.73
41306;BME280;27051;50.376;19.152;2023-11-19T16:42:08;97428.57;;;4.90;73.47
41306;BME280;27051;50.376;19.152;2023-11-19T16:44:35;97433.02;;;5.08;73.09
41306;BME280;27051;50.376;19.152;2023-11-19T16:47:02;97432.66;;;5.16;73.42
41306;BME280;27051;50.376;19.152;2023-11-19T16:49:32;97432.14;;;5.20;73.39
41306;BME280;27051;50.376;19.152;2023-11-19T16:51:59;97432.79;;;5.19;73.37
41306;BME280;27051;50.376;19.152;2023-11-19T16:54:29;97434.88;;;5.20;73.66
41306;BME280;27051;50.376;19.152;2023-11-19T16:56:56;97442.31;;;5.28;73.37
41306;BME280;27051;50.376;19.152;2023-11-19T16:59:23;97442.48;;;5.35;73.14
41306;BME280;27051;50.376;19.152;2023-11-19T17:01:50;97436.27;;;5.39;73.01
41306;BME280;27051;50.376;19.152;2023-11-19T17:04:17;97427.91;;;5.38;73.12